Time;durP1;ratioP1;P1;durP2;ratioP2;P2;SDS_P1;SDS_P2;PMS_P1;PMS_P2;Temp;Humidity;BMP_temperature;BMP_pressure;BME280_temperature;BME280_humidity;BME280_pressure;Samples;Min_cycle;Max_cycle;Signal;HPM_P1;HPM_P2
2023/04/16 00:02:17;;;;;;;12.80;9.38;;;12.20;80.10;;;;;;5017682;28;20036;-83
2023/04/16 00:04:42;;;;;;;12.30;9.27;;;12.20;80.20;;;;;;5017869;28;20029;-83
2023/04/16 00:07:08;;;;;;;13.27;9.15;;;12.20;80.20;;;;;;5017708;28;20052;-83
2023/04/16 00:09:33;;;;;;;14.05;9.90;;;12.20;80.20;;;;;;5035752;28;20014;-83
2023/04/16 00:11:59;;;;;;;12.77;9.55;;;12.20;80.20;;;;;;5016740;28;20025;-83
2023/04/16 00:14:24;;;;;;;13.48;9.35;;;12.20;80.20;;;;;;5017062;28;20026;-83
2023/04/16 00:16:50;;;;;;;12.73;9.10;;;12.20;80.20;;;;;;5016667;28;20033;-83
2023/04/16 00:19:15;;;;;;;12.30;9.30;;;12.20;80.20;;;;;;5016629;28;20029;-83
2023/04/16 00:21:41;;;;;;;13.82;9.45;;;12.20;80.20;;;;;;5035344;28;20172;-83
2023/04/16 00:24:06;;;;;;;13.13;8.68;;;12.20;80.20;;;;;;5017467;28;20549;-83
2023/04/16 00:26:32;;;;;;;12.90;9.45;;;12.20;80.20;;;;;;5034721;28;20030;-82
2023/04/16 00:28:57;;;;;;;12.93;9.25;;;12.20;80.20;;;;;;5017286;28;20508;-83
2023/04/16 00:31:31;;;;;;;13.25;9.50;;;12.20;80.20;;;;;;5017099;28;20048;-83
2023/04/16 00:33:57;;;;;;;13.50;9.32;;;12.20;80.20;;;;;;5016835;28;20068;-83
2023/04/16 00:36:24;;;;;;;13.60;9.32;;;12.20;80.30;;;;;;5016793;28;20029;-83
2023/04/16 00:38:50;;;;;;;14.20;9.68;;;12.20;80.20;;;;;;5017124;28;20029;-82
2023/04/16 00:41:16;;;;;;;13.95;9.50;;;12.20;80.20;;;;;;5016810;28;20048;-83
2023/04/16 00:43:41;;;;;;;13.15;9.50;;;12.20;80.20;;;;;;5034643;28;20474;-83
2023/04/16 00:46:07;;;;;;;13.32;9.45;;;12.20;80.20;;;;;;5016779;28;20092;-83
2023/04/16 00:48:34;;;;;;;12.70;9.27;;;12.20;80.20;;;;;;5034400;28;20478;-83
2023/04/16 00:51:00;;;;;;;12.63;9.50;;;12.20;80.20;;;;;;5017632;28;20021;-84
2023/04/16 00:53:26;;;;;;;12.48;9.25;;;12.20;80.20;;;;;;5016965;28;20075;-83
2023/04/16 00:55:53;;;;;;;12.88;9.38;;;12.20;80.20;;;;;;5016497;28;20366;-83
2023/04/16 00:58:18;;;;;;;12.52;9.40;;;12.20;80.20;;;;;;5016412;28;20033;-83
2023/04/16 01:00:44;;;;;;;13.02;9.27;;;12.20;80.20;;;;;;5016496;28;20022;-83
2023/04/16 01:03:09;;;;;;;12.25;9.43;;;12.20;80.20;;;;;;5016538;28;20167;-84
2023/04/16 01:05:35;;;;;;;12.00;8.88;;;12.20;80.20;;;;;;5016355;28;20052;-82
2023/04/16 01:08:01;;;;;;;13.43;9.30;;;12.20;80.20;;;;;;5016576;28;20048;-82
2023/04/16 01:10:27;;;;;;;12.85;9.48;;;12.20;80.30;;;;;;5034812;28;20814;-83
2023/04/16 01:12:52;;;;;;;14.05;9.93;;;12.20;80.20;;;;;;5034160;28;20021;-83
2023/04/16 01:15:18;;;;;;;13.00;9.55;;;12.20;80.30;;;;;;5016027;28;20038;-82
2023/04/16 01:17:45;;;;;;;13.57;9.55;;;12.20;80.30;;;;;;5016226;28;20079;-83
2023/04/16 01:20:10;;;;;;;13.82;9.68;;;12.20;80.30;;;;;;5016421;28;20393;-84
2023/04/16 01:22:36;;;;;;;11.98;9.70;;;12.20;80.30;;;;;;5013951;28;20183;-83
2023/04/16 01:25:01;;;;;;;13.45;10.13;;;12.20;80.30;;;;;;5020627;28;20449;-83
2023/04/16 01:27:27;;;;;;;13.38;9.32;;;12.20;80.30;;;;;;5033954;28;20105;-82
2023/04/16 01:29:52;;;;;;;13.38;9.48;;;12.20;80.30;;;;;;5033511;28;20022;-83
2023/04/16 01:32:18;;;;;;;12.00;9.30;;;12.20;80.40;;;;;;5033722;28;20036;-82
2023/04/16 01:34:43;;;;;;;13.27;10.00;;;12.20;80.40;;;;;;5033474;28;20018;-82
2023/04/16 01:37:09;;;;;;;12.65;9.52;;;12.20;80.40;;;;;;5047392;28;20381;-83
2023/04/16 01:39:35;;;;;;;12.95;9.55;;;12.20;80.40;;;;;;5073366;28;20032;-81
2023/04/16 01:42:01;;;;;;;14.00;9.98;;;12.10;80.40;;;;;;5055347;28;20028;-83
2023/04/16 01:44:26;;;;;;;13.70;10.10;;;12.20;80.40;;;;;;5055592;28;20115;-82
2023/04/16 01:46:52;;;;;;;13.23;9.98;;;12.20;80.40;;;;;;5055274;28;20147;-84
2023/04/16 01:49:17;;;;;;;13.05;10.02;;;12.20;80.40;;;;;;5055559;28;20112;-83
2023/04/16 01:51:43;;;;;;;14.02;10.32;;;12.20;80.50;;;;;;5073515;28;20387;-83
2023/04/16 01:54:09;;;;;;;13.68;10.02;;;12.20;80.40;;;;;;5054731;28;20460;-82
2023/04/16 01:56:34;;;;;;;12.93;10.30;;;12.20;80.60;;;;;;5055326;28;20023;-82
2023/04/16 01:59:00;;;;;;;13.77;10.50;;;12.20;80.40;;;;;;5055412;28;20546;-81
2023/04/16 02:01:25;;;;;;;13.15;9.80;;;12.20;80.60;;;;;;5055256;28;20035;-82
2023/04/16 02:03:51;;;;;;;14.18;10.75;;;12.20;80.50;;;;;;5071502;28;20045;-84
2023/04/16 02:06:17;;;;;;;14.02;10.38;;;12.20;80.50;;;;;;5052562;28;20021;-83
2023/04/16 02:08:42;;;;;;;14.90;10.18;;;12.20;80.60;;;;;;5055234;28;20029;-82
2023/04/16 02:11:08;;;;;;;12.82;10.07;;;12.20;80.50;;;;;;5055036;28;20480;-83
2023/04/16 02:13:34;;;;;;;14.38;10.80;;;12.20;80.50;;;;;;5054582;28;20033;-84
2023/04/16 02:15:59;;;;;;;12.88;10.00;;;12.20;80.50;;;;;;5054541;28;20511;-83
2023/04/16 02:18:25;;;;;;;14.65;10.80;;;12.10;80.40;;;;;;5054523;28;20025;-82
2023/04/16 02:20:50;;;;;;;14.48;11.18;;;12.20;80.50;;;;;;5054596;28;20051;-82
2023/04/16 02:23:16;;;;;;;13.95;10.68;;;12.20;80.50;;;;;;5054882;28;20025;-83
2023/04/16 02:25:44;;;;;;;13.23;10.30;;;12.20;80.50;;;;;;5055085;28;20025;-82
2023/04/16 02:28:11;;;;;;;13.50;10.18;;;12.20;80.50;;;;;;5054571;28;20025;-82
2023/04/16 02:30:37;;;;;;;14.40;10.60;;;12.20;80.40;;;;;;5054338;28;20028;-82
2023/04/16 02:33:04;;;;;;;13.45;10.32;;;12.20;80.40;;;;;;5054692;28;20028;-82
2023/04/16 02:35:31;;;;;;;14.95;11.10;;;12.20;80.40;;;;;;5054860;28;20020;-83
2023/04/16 02:37:57;;;;;;;13.93;10.10;;;12.20;80.40;;;;;;5050971;28;20108;-83
2023/04/16 02:40:22;;;;;;;13.77;11.13;;;12.20;80.40;;;;;;5051113;28;20028;-83
2023/04/16 02:42:48;;;;;;;13.63;10.40;;;12.20;80.40;;;;;;5051211;28;20087;-82
2023/04/16 02:45:13;;;;;;;14.27;10.77;;;12.20;80.40;;;;;;5052479;28;20540;-82
2023/04/16 02:47:39;;;;;;;13.00;10.23;;;12.20;80.40;;;;;;5051794;28;20021;-82
2023/04/16 02:50:05;;;;;;;13.52;11.10;;;12.20;80.40;;;;;;5052855;28;20389;-82
2023/04/16 02:52:31;;;;;;;14.43;10.95;;;12.20;80.40;;;;;;5052096;28;20029;-83
2023/04/16 02:54:57;;;;;;;12.50;9.90;;;12.20;80.50;;;;;;5052011;28;20028;-83
2023/04/16 02:57:22;;;;;;;13.93;10.77;;;12.20;80.40;;;;;;5053066;28;20025;-82
2023/04/16 02:59:48;;;;;;;14.52;10.63;;;12.20;80.50;;;;;;5051707;28;20040;-84
2023/04/16 03:02:13;;;;;;;14.00;10.95;;;12.20;80.50;;;;;;5051492;28;20025;-83
2023/04/16 03:04:39;;;;;;;13.40;10.40;;;12.20;80.50;;;;;;5051511;28;20025;-83
2023/04/16 03:07:04;;;;;;;14.45;11.48;;;12.20;80.50;;;;;;5054723;28;20032;-83
2023/04/16 03:09:30;;;;;;;13.80;10.85;;;12.20;80.60;;;;;;5055589;28;20048;-80
2023/04/16 03:11:56;;;;;;;14.10;11.35;;;12.20;80.50;;;;;;5055065;28;20018;-82
2023/04/16 03:14:21;;;;;;;14.20;11.40;;;12.20;80.50;;;;;;5055502;28;20104;-83
2023/04/16 03:16:47;;;;;;;15.45;11.68;;;12.20;80.60;;;;;;5054926;28;20029;-82
2023/04/16 03:19:12;;;;;;;13.82;10.65;;;12.20;80.60;;;;;;5054717;28;20048;-82
2023/04/16 03:21:38;;;;;;;12.85;10.98;;;12.20;80.60;;;;;;5054937;28;20024;-85
2023/04/16 03:24:03;;;;;;;14.02;10.63;;;12.20;80.50;;;;;;5054944;28;20025;-83
2023/04/16 03:26:29;;;;;;;13.57;10.82;;;12.20;80.60;;;;;;5055693;28;20021;-83
2023/04/16 03:28:54;;;;;;;14.77;11.55;;;12.20;80.60;;;;;;5054721;28;20032;-82
2023/04/16 03:31:23;;;;;;;13.40;10.75;;;12.20;80.60;;;;;;5053980;28;20032;-83
2023/04/16 03:33:48;;;;;;;14.10;10.93;;;12.20;80.60;;;;;;5054450;28;20029;-83
2023/04/16 03:36:14;;;;;;;14.65;11.80;;;12.20;80.60;;;;;;5053798;28;20037;-82
2023/04/16 03:38:39;;;;;;;14.15;11.02;;;12.20;80.60;;;;;;5053886;28;20033;-83
2023/04/16 03:41:05;;;;;;;15.60;12.73;;;12.20;80.60;;;;;;5053665;28;20431;-82
2023/04/16 03:43:30;;;;;;;14.50;11.25;;;12.20;80.60;;;;;;5055101;28;20052;-83
2023/04/16 03:45:56;;;;;;;14.70;11.18;;;12.20;80.60;;;;;;5053848;28;20025;-82
2023/04/16 03:48:21;;;;;;;15.68;12.23;;;12.20;80.60;;;;;;5054941;28;20032;-82
2023/04/16 03:50:47;;;;;;;14.52;11.27;;;12.20;80.60;;;;;;5054089;28;20536;-79
2023/04/16 03:53:13;;;;;;;14.30;11.25;;;12.20;80.50;;;;;;5055118;28;20032;-82
2023/04/16 03:55:39;;;;;;;14.70;11.27;;;12.20;80.60;;;;;;5053960;28;20162;-82
2023/04/16 03:58:05;;;;;;;13.93;10.75;;;12.20;80.60;;;;;;5053714;28;20029;-81
2023/04/16 04:00:30;;;;;;;13.30;10.98;;;12.20;80.60;;;;;;5053757;28;20131;-82
2023/04/16 04:02:56;;;;;;;14.88;11.65;;;12.20;80.60;;;;;;5053795;28;20028;-82
2023/04/16 04:05:21;;;;;;;13.50;10.68;;;12.20;80.60;;;;;;5054562;28;20111;-82
2023/04/16 04:07:47;;;;;;;14.27;11.23;;;12.20;80.60;;;;;;5054530;28;20025;-82
2023/04/16 04:10:13;;;;;;;14.65;11.65;;;12.20;80.60;;;;;;5053298;28;20366;-83
2023/04/16 04:12:38;;;;;;;12.80;10.18;;;12.20;80.60;;;;;;5053248;28;20021;-82
2023/04/16 04:15:04;;;;;;;16.05;12.00;;;12.20;80.60;;;;;;5053330;28;20021;-82
2023/04/16 04:17:30;;;;;;;14.82;11.95;;;12.20;81.10;;;;;;5053314;28;20021;-83
2023/04/16 04:19:55;;;;;;;14.93;11.82;;;12.20;80.70;;;;;;5053774;28;20107;-83
2023/04/16 04:22:21;;;;;;;14.35;11.55;;;12.20;80.60;;;;;;5053300;28;20040;-83
2023/04/16 04:24:46;;;;;;;14.25;11.48;;;12.20;80.60;;;;;;5053096;28;20052;-83
2023/04/16 04:27:12;;;;;;;15.38;12.02;;;12.20;80.60;;;;;;5052994;28;20071;-84
2023/04/16 04:29:37;;;;;;;15.57;12.05;;;12.10;80.60;;;;;;5053052;28;20108;-83
2023/04/16 04:32:03;;;;;;;13.63;11.13;;;12.20;80.60;;;;;;5053277;28;20025;-83
2023/04/16 04:34:28;;;;;;;13.93;11.70;;;12.20;80.60;;;;;;5053432;28;20036;-84
2023/04/16 04:36:54;;;;;;;14.13;11.20;;;12.20;80.60;;;;;;5064611;28;20059;-82
2023/04/16 04:39:20;;;;;;;15.07;12.10;;;12.20;80.60;;;;;;5056880;28;20106;-82
2023/04/16 04:41:46;;;;;;;14.88;12.45;;;12.20;80.70;;;;;;5056472;28;20400;-82
2023/04/16 04:44:12;;;;;;;15.55;11.82;;;12.20;80.60;;;;;;5056854;28;20082;-82
2023/04/16 04:46:38;;;;;;;13.95;11.45;;;12.10;80.50;;;;;;5056449;28;20433;-83
2023/04/16 04:49:03;;;;;;;14.52;12.07;;;12.20;80.60;;;;;;5056405;28;20538;-83
2023/04/16 04:51:30;;;;;;;14.70;12.15;;;12.20;80.60;;;;;;5056240;28;20021;-82
2023/04/16 04:53:55;;;;;;;15.73;12.50;;;12.20;80.70;;;;;;5074635;28;20040;-82
2023/04/16 04:56:21;;;;;;;13.80;11.80;;;12.20;80.60;;;;;;5056001;28;20055;-82
2023/04/16 04:58:48;;;;;;;14.45;12.05;;;12.20;80.70;;;;;;5056323;28;20446;-83
2023/04/16 05:01:13;;;;;;;14.23;12.02;;;12.20;80.60;;;;;;5056379;28;20029;-82
2023/04/16 05:03:39;;;;;;;14.98;12.52;;;12.20;80.70;;;;;;5074351;28;20078;-83
2023/04/16 05:06:05;;;;;;;16.17;13.05;;;12.20;80.60;;;;;;5056449;28;20024;-83
2023/04/16 05:08:31;;;;;;;15.07;11.75;;;12.20;80.70;;;;;;5073869;28;20495;-82
2023/04/16 05:10:56;;;;;;;15.77;13.05;;;12.20;80.60;;;;;;5056163;28;20021;-81
2023/04/16 05:13:22;;;;;;;15.85;12.82;;;12.20;80.60;;;;;;5056055;28;20017;-82
2023/04/16 05:15:47;;;;;;;14.52;12.57;;;12.10;80.60;;;;;;5056085;28;20023;-83
2023/04/16 05:18:13;;;;;;;15.05;12.65;;;12.20;80.70;;;;;;5073971;28;20070;-83
2023/04/16 05:20:38;;;;;;;15.45;12.73;;;12.20;80.60;;;;;;5055450;28;20381;-81
2023/04/16 05:23:04;;;;;;;16.73;13.55;;;12.20;80.60;;;;;;5055806;28;20054;-81
2023/04/16 05:25:29;;;;;;;16.00;12.90;;;12.20;80.60;;;;;;5055708;28;20073;-83
2023/04/16 05:27:55;;;;;;;15.65;12.90;;;12.20;80.60;;;;;;5055665;28;20028;-82
2023/04/16 05:30:20;;;;;;;15.95;13.52;;;12.20;80.70;;;;;;5054305;28;20020;-82
2023/04/16 05:32:46;;;;;;;16.08;13.30;;;12.20;80.70;;;;;;5055666;28;20017;-84
2023/04/16 05:35:11;;;;;;;15.43;13.05;;;12.20;80.60;;;;;;5056068;28;20530;-80
2023/04/16 05:37:36;;;;;;;15.65;13.15;;;12.20;80.50;;;;;;5111183;23;20048;-82
2023/04/16 05:40:02;;;;;;;16.25;13.20;;;12.20;80.60;;;;;;5062074;28;20056;-84
2023/04/16 05:42:28;;;;;;;16.58;13.20;;;12.20;80.50;;;;;;5060917;28;20021;-84
2023/04/16 05:44:53;;;;;;;16.70;13.88;;;12.20;81.10;;;;;;5080171;28;20017;-83
2023/04/16 05:47:19;;;;;;;16.92;14.18;;;12.20;80.50;;;;;;5061719;28;20481;-83
2023/04/16 05:49:44;;;;;;;17.88;14.93;;;12.20;80.60;;;;;;5061412;28;20103;-83
2023/04/16 05:52:11;;;;;;;17.60;14.10;;;12.20;80.50;;;;;;5060786;28;20051;-83
2023/04/16 05:54:36;;;;;;;16.08;13.43;;;12.20;81.10;;;;;;5054824;28;20017;-83
2023/04/16 05:57:02;;;;;;;16.60;13.65;;;12.30;80.60;;;;;;5058817;28;20025;-85
2023/04/16 05:59:29;;;;;;;16.90;13.98;;;12.20;80.60;;;;;;5075288;28;20086;-83
2023/04/16 06:01:55;;;;;;;17.77;15.00;;;12.20;80.60;;;;;;5055160;28;20079;-83
2023/04/16 06:04:21;;;;;;;18.00;14.52;;;12.20;80.50;;;;;;5053514;28;20444;-81
2023/04/16 06:06:46;;;;;;;17.52;14.55;;;12.20;80.50;;;;;;5056182;28;20514;-84
2023/04/16 06:09:12;;;;;;;18.02;14.73;;;12.20;80.50;;;;;;5056342;28;20063;-85
2023/04/16 06:11:37;;;;;;;18.08;14.90;;;12.20;80.60;;;;;;5052915;28;20108;-82
2023/04/16 06:14:03;;;;;;;17.85;15.02;;;12.10;80.50;;;;;;5057183;28;20029;-84
2023/04/16 06:16:28;;;;;;;17.25;14.55;;;12.20;80.50;;;;;;5058088;28;20085;-82
2023/04/16 06:18:54;;;;;;;19.77;15.82;;;12.10;80.50;;;;;;5059270;28;20039;-81
2023/04/16 06:21:20;;;;;;;18.77;15.35;;;12.20;80.50;;;;;;5075505;28;20458;-81
2023/04/16 06:23:45;;;;;;;18.15;15.57;;;12.20;80.50;;;;;;5057539;28;20029;-82
2023/04/16 06:26:11;;;;;;;18.88;15.57;;;12.20;80.50;;;;;;5057818;28;20131;-83
2023/04/16 06:28:36;;;;;;;19.55;16.08;;;12.20;80.50;;;;;;5056492;28;20745;-84
2023/04/16 06:31:02;;;;;;;17.60;15.00;;;12.20;80.40;;;;;;5056928;28;20086;-83
2023/04/16 06:33:28;;;;;;;19.15;15.85;;;12.20;80.50;;;;;;5056843;28;20024;-84
2023/04/16 06:35:53;;;;;;;19.15;15.68;;;12.20;80.50;;;;;;5048961;28;20121;-85
2023/04/16 06:38:19;;;;;;;19.48;15.88;;;12.20;80.50;;;;;;5049459;28;20036;-84
2023/04/16 06:40:45;;;;;;;19.00;15.95;;;12.20;80.50;;;;;;5051253;28;20029;-84
2023/04/16 06:43:10;;;;;;;19.75;16.25;;;12.20;80.40;;;;;;5046547;28;20544;-85
2023/04/16 06:45:36;;;;;;;19.13;15.88;;;12.20;80.40;;;;;;5036088;28;20392;-85
2023/04/16 06:48:02;;;;;;;18.85;16.02;;;12.20;80.50;;;;;;5035673;28;20120;-84
2023/04/16 06:50:28;;;;;;;19.60;16.45;;;12.20;80.50;;;;;;5035462;28;20033;-83
2023/04/16 06:52:54;;;;;;;19.17;15.90;;;12.20;80.40;;;;;;5041713;28;20099;-83
2023/04/16 06:58:33;;;;;;;20.48;16.92;;;12.30;80.60;;;;;;5057846;28;20040;-85
2023/04/16 07:01:14;;;;;;;;;;;;;;;;;;;;;
2023/04/16 07:03:59;;;;;;;20.00;16.65;;;12.30;80.40;;;;;;5058737;28;20139;-84
2023/04/16 07:06:48;;;;;;;19.35;16.20;;;12.30;80.50;;;;;;5040532;28;20021;-85
2023/04/16 07:09:51;;;;;;;;;;;;;;;;;;;;;
2023/04/16 07:12:55;;;;;;;17.85;15.27;;;12.20;80.40;;;;;;5058672;28;20084;-83
2023/04/16 07:15:21;;;;;;;20.23;16.48;;;12.20;80.40;;;;;;5038032;28;20485;-84
2023/04/16 07:17:46;;;;;;;18.73;15.73;;;12.20;80.40;;;;;;5059578;28;20016;-84
2023/04/16 07:20:12;;;;;;;19.50;16.08;;;12.20;80.40;;;;;;5071368;28;20032;-84
2023/04/16 07:22:37;;;;;;;18.80;15.95;;;12.20;80.40;;;;;;5060988;28;20032;-84
2023/04/16 07:25:03;;;;;;;19.40;16.67;;;12.30;80.40;;;;;;5062610;28;20400;-80
2023/04/16 07:27:29;;;;;;;19.95;16.48;;;12.20;80.40;;;;;;5053156;28;20481;-81
2023/04/16 07:29:54;;;;;;;19.55;16.70;;;12.20;80.40;;;;;;5057945;28;20021;-78
2023/04/16 07:32:21;;;;;;;19.40;16.08;;;12.30;80.40;;;;;;5068311;28;20184;-80
2023/04/16 07:34:46;;;;;;;18.92;16.08;;;12.20;80.40;;;;;;5062093;28;20024;-80
2023/04/16 07:37:12;;;;;;;19.58;16.50;;;12.30;80.50;;;;;;5081351;28;20426;-82
2023/04/16 07:39:37;;;;;;;19.15;16.38;;;12.30;80.60;;;;;;5062869;28;20055;-82
2023/04/16 07:42:03;;;;;;;20.63;16.58;;;12.30;80.60;;;;;;5071088;28;20019;-84
2023/04/16 07:44:28;;;;;;;21.95;16.80;;;12.20;80.50;;;;;;5066056;28;20029;-83
2023/04/16 07:46:54;;;;;;;21.50;16.88;;;12.10;80.30;;;;;;5065063;28;20029;-81
2023/04/16 07:49:19;;;;;;;21.33;16.75;;;12.10;80.40;;;;;;5065201;28;20028;-82
2023/04/16 07:51:45;;;;;;;21.65;17.02;;;12.30;80.50;;;;;;5061565;28;20025;-81
2023/04/16 07:54:11;;;;;;;20.92;17.25;;;12.30;80.40;;;;;;5061067;28;20477;-80
2023/04/16 07:56:36;;;;;;;20.85;16.92;;;12.30;80.50;;;;;;5064485;28;20029;-82
2023/04/16 07:59:02;;;;;;;22.75;18.20;;;12.20;80.40;;;;;;5063409;28;20059;-85
2023/04/16 08:01:28;;;;;;;20.63;16.25;;;12.30;80.40;;;;;;5063272;28;20025;-82
2023/04/16 08:03:53;;;;;;;20.23;16.35;;;12.20;80.30;;;;;;5064743;28;20492;-85
2023/04/16 08:06:19;;;;;;;20.75;16.73;;;12.20;80.30;;;;;;5060631;28;20408;-78
2023/04/16 08:08:44;;;;;;;21.25;16.88;;;12.30;80.30;;;;;;5063773;28;20248;-86
2023/04/16 08:11:10;;;;;;;21.48;17.25;;;12.20;80.30;;;;;;5056004;28;20025;-82
2023/04/16 08:13:36;;;;;;;19.85;17.35;;;12.30;80.30;;;;;;5060964;28;20686;-86
2023/04/16 08:16:01;;;;;;;22.35;16.90;;;12.30;80.30;;;;;;5039358;28;20050;-82
2023/04/16 08:18:27;;;;;;;20.25;16.52;;;12.30;80.30;;;;;;5043049;28;20025;-85
2023/04/16 08:20:54;;;;;;;20.25;17.40;;;12.30;80.30;;;;;;5045012;28;20028;-84
2023/04/16 08:26:23;;;;;;;20.58;16.83;;;12.50;80.30;;;;;;5109504;23;20082;-87
2023/04/16 08:29:29;;;;;;;19.45;16.38;;;12.90;80.40;;;;;;5061235;28;20048;-86
2023/04/16 08:31:55;;;;;;;19.42;16.63;;;12.30;80.20;;;;;;4988523;28;20511;-83
2023/04/16 08:34:21;;;;;;;22.30;16.88;;;12.30;80.10;;;;;;4996181;28;20130;-84
2023/04/16 08:36:46;;;;;;;20.45;16.42;;;12.30;80.10;;;;;;5065857;28;20020;-83
2023/04/16 08:39:12;;;;;;;20.65;17.27;;;12.30;80.20;;;;;;5057717;28;20095;-84
2023/04/16 08:41:41;;;;;;;20.40;16.90;;;12.30;80.10;;;;;;5060780;28;20033;-80
2023/04/16 08:44:08;;;;;;;20.15;16.60;;;12.30;80.10;;;;;;5062289;28;20390;-81
2023/04/16 08:46:36;;;;;;;21.77;17.67;;;12.20;80.10;;;;;;5062248;28;20020;-85
2023/04/16 08:49:05;;;;;;;21.52;17.48;;;12.30;80.20;;;;;;5062041;28;20179;-82
2023/04/16 08:51:34;;;;;;;20.33;16.90;;;12.30;80.20;;;;;;5065999;28;20036;-83
2023/04/16 08:54:07;;;;;;;21.33;16.92;;;12.30;80.10;;;;;;5055257;28;20021;-82
2023/04/16 08:59:14;;;;;;;19.27;16.70;;;12.30;80.10;;;;;;5125056;23;20041;-83
2023/04/16 09:01:40;;;;;;;21.55;17.15;;;12.30;80.10;;;;;;5057072;28;20025;-84
2023/04/16 09:04:08;;;;;;;19.60;16.33;;;12.50;80.10;;;;;;5057373;28;20045;-82
2023/04/16 09:06:36;;;;;;;20.83;17.48;;;12.10;79.80;;;;;;5062103;28;20486;-82
2023/04/16 09:09:03;;;;;;;21.60;17.05;;;12.40;80.10;;;;;;5082466;28;20029;-83
2023/04/16 09:11:29;;;;;;;21.20;17.08;;;12.40;80.10;;;;;;5066526;28;20021;-85
2023/04/16 09:13:55;;;;;;;21.75;16.75;;;12.40;80.00;;;;;;5061791;28;20077;-84
2023/04/16 09:16:23;;;;;;;20.63;17.05;;;12.40;80.00;;;;;;5058967;28;20024;-85
2023/04/16 09:18:50;;;;;;;19.75;16.52;;;12.40;80.10;;;;;;5073425;28;20032;-83
2023/04/16 09:21:16;;;;;;;20.70;16.92;;;12.40;80.10;;;;;;5060544;28;20115;-83
2023/04/16 09:23:42;;;;;;;21.17;17.50;;;12.40;80.10;;;;;;5063261;28;20459;-84
2023/04/16 09:26:07;;;;;;;22.25;16.60;;;12.40;80.10;;;;;;5076007;28;20028;-84
2023/04/16 09:28:41;;;;;;;20.27;16.95;;;12.40;80.10;;;;;;5040477;28;20036;-84
2023/04/16 09:31:11;;;;;;;20.27;17.30;;;12.40;80.20;;;;;;5039647;28;20032;-85
2023/04/16 09:33:36;;;;;;;21.73;16.52;;;12.40;80.10;;;;;;5052912;28;20027;-85
2023/04/16 09:36:02;;;;;;;21.52;17.42;;;12.30;80.10;;;;;;5062032;28;20021;-83
2023/04/16 09:38:48;;;;;;;21.30;16.80;;;12.40;80.20;;;;;;5056433;28;20442;-86
2023/04/16 09:41:15;;;;;;;19.52;16.40;;;12.30;80.20;;;;;;5057477;28;20477;-83
2023/04/16 09:43:48;;;;;;;20.60;17.00;;;12.40;80.20;;;;;;5060177;28;20032;-81
2023/04/16 09:46:13;;;;;;;20.35;17.02;;;12.30;80.20;;;;;;5060473;28;20025;-84
2023/04/16 09:48:39;;;;;;;22.88;17.30;;;12.30;80.30;;;;;;5073851;28;20033;-84
2023/04/16 09:51:05;;;;;;;21.20;16.67;;;12.20;80.30;;;;;;5054986;28;20047;-80
2023/04/16 09:53:31;;;;;;;19.42;16.70;;;12.30;80.30;;;;;;5051559;28;20510;-79
2023/04/16 09:56:00;;;;;;;19.70;16.92;;;12.30;80.40;;;;;;5034875;28;20021;-80
2023/04/16 09:58:27;;;;;;;20.67;17.15;;;12.30;80.30;;;;;;5037809;28;20052;-82
2023/04/16 10:01:00;;;;;;;20.40;16.75;;;12.30;80.40;;;;;;5043582;28;20067;-84
2023/04/16 10:03:33;;;;;;;20.98;17.05;;;12.30;80.60;;;;;;5040345;28;20021;-80
2023/04/16 10:06:00;;;;;;;21.63;16.63;;;12.30;80.50;;;;;;5038861;28;20046;-83
2023/04/16 10:13:37;;;;;;;21.00;17.08;;;12.30;80.50;;;;;;5145212;22;20080;-79
2023/04/16 10:16:03;;;;;;;21.08;17.15;;;12.30;80.50;;;;;;5055842;28;20500;-79
2023/04/16 10:18:29;;;;;;;20.42;17.08;;;12.30;80.50;;;;;;5040569;28;20021;-79
2023/04/16 10:20:54;;;;;;;20.95;16.95;;;12.30;80.50;;;;;;5040779;28;20021;-83
2023/04/16 10:23:21;;;;;;;20.02;16.45;;;12.30;80.50;;;;;;5044303;28;20025;-83
2023/04/16 10:25:48;;;;;;;19.65;16.48;;;12.20;80.40;;;;;;5058536;28;20083;-83
2023/04/16 10:28:14;;;;;;;20.48;16.30;;;12.30;80.50;;;;;;5058560;28;20056;-83
2023/04/16 10:30:41;;;;;;;19.23;16.58;;;12.20;80.50;;;;;;5062620;28;20021;-83
2023/04/16 10:33:08;;;;;;;18.48;15.82;;;12.30;80.50;;;;;;5062405;28;20029;-83
2023/04/16 10:35:39;;;;;;;19.02;16.17;;;12.20;80.60;;;;;;5062979;28;20024;-81
2023/04/16 10:38:25;;;;;;;19.53;16.17;;;12.30;80.70;;;;;;5062247;28;20036;-78
2023/04/16 10:41:02;;;;;;;19.60;16.35;;;12.30;80.70;;;;;;5061609;28;20020;-82
2023/04/16 10:43:33;;;;;;;23.55;17.17;;;12.30;80.60;;;;;;5085248;28;20021;-83
2023/04/16 10:46:27;;;;;;;19.40;16.25;;;12.30;80.70;;;;;;5062276;28;20021;-82
2023/04/16 10:48:54;;;;;;;19.30;15.77;;;12.30;80.60;;;;;;5060341;28;20040;-82
2023/04/16 10:51:32;;;;;;;19.40;16.20;;;12.30;80.60;;;;;;5063036;28;20025;-81
2023/04/16 10:54:03;;;;;;;20.30;16.35;;;12.30;80.70;;;;;;5059812;28;20492;-80
2023/04/16 10:56:31;;;;;;;19.63;15.98;;;12.30;80.70;;;;;;5054216;28;20025;-83
2023/04/16 10:58:57;;;;;;;19.38;16.02;;;12.30;80.70;;;;;;5069438;28;20393;-80
2023/04/16 11:01:34;;;;;;;20.80;16.75;;;12.30;80.60;;;;;;5052017;28;20028;-79
2023/04/16 11:04:18;;;;;;;19.73;15.85;;;12.30;80.70;;;;;;5067345;28;20036;-82
2023/04/16 11:07:03;;;;;;;19.60;16.13;;;12.30;80.60;;;;;;5051650;28;20385;-82
2023/04/16 11:10:01;;;;;;;20.27;17.05;;;12.30;80.60;;;;;;5033316;28;20288;-83
2023/04/16 11:12:46;;;;;;;18.40;15.68;;;12.30;80.70;;;;;;5035872;28;20075;-83
2023/04/16 11:15:14;;;;;;;19.00;15.52;;;12.30;80.60;;;;;;5058564;28;20028;-83
2023/04/16 11:17:45;;;;;;;19.50;15.40;;;12.20;80.50;;;;;;5059704;28;20106;-84
2023/04/16 11:20:18;;;;;;;19.88;15.82;;;12.20;80.70;;;;;;5061930;28;20025;-84
2023/04/16 11:22:44;;;;;;;18.75;15.57;;;12.20;80.60;;;;;;5045414;28;20048;-82
2023/04/16 11:25:10;;;;;;;18.65;16.20;;;12.30;80.70;;;;;;5038065;28;20025;-81
2023/04/16 11:27:36;;;;;;;20.02;16.63;;;12.10;80.50;;;;;;5053241;28;20033;-83
2023/04/16 11:30:08;;;;;;;19.23;15.57;;;12.30;80.70;;;;;;5045513;28;20032;-83
2023/04/16 11:32:35;;;;;;;21.45;16.73;;;12.20;80.60;;;;;;5034377;28;20025;-81
2023/04/16 11:35:04;;;;;;;20.48;16.50;;;12.30;80.70;;;;;;5038752;28;20033;-82
2023/04/16 11:45:18;;;;;;;17.90;15.38;;;12.20;80.60;;;;;;5068178;22;20060;-81
2023/04/16 11:47:50;;;;;;;19.35;16.42;;;12.20;80.70;;;;;;5039390;28;20082;-81
2023/04/16 11:50:28;;;;;;;19.42;16.05;;;12.20;80.70;;;;;;5061132;28;20024;-82
2023/04/16 11:52:57;;;;;;;18.73;15.98;;;12.20;80.60;;;;;;5056246;28;20032;-81
2023/04/16 11:55:23;;;;;;;19.45;15.80;;;12.20;80.70;;;;;;5056092;28;20423;-82
2023/04/16 11:57:50;;;;;;;17.48;15.05;;;12.20;80.70;;;;;;5059959;28;20033;-84
2023/04/16 12:00:16;;;;;;;18.73;15.68;;;12.20;80.80;;;;;;5057719;28;20082;-83
2023/04/16 12:02:53;;;;;;;20.63;16.20;;;12.30;80.80;;;;;;5058995;28;20092;-82
2023/04/16 12:05:29;;;;;;;17.50;15.13;;;12.20;80.70;;;;;;5062596;28;20466;-84
2023/04/16 12:41:29;;;;;;;18.33;14.90;;;12.20;80.70;;;;;;5035705;28;20406;-81
2023/04/16 12:44:07;;;;;;;17.75;14.93;;;12.20;80.70;;;;;;5019605;28;20034;-82
2023/04/16 12:46:40;;;;;;;17.48;14.75;;;12.20;80.70;;;;;;5019496;28;20440;-83
2023/04/16 12:49:07;;;;;;;18.75;15.25;;;12.20;80.60;;;;;;5018474;28;20555;-81
2023/04/16 12:51:34;;;;;;;16.83;14.05;;;12.20;80.70;;;;;;5018682;28;20021;-83
2023/04/16 12:54:00;;;;;;;18.08;15.05;;;12.20;80.70;;;;;;5019192;28;20018;-82
2023/04/16 12:56:26;;;;;;;18.20;15.18;;;12.30;80.70;;;;;;5018705;28;20112;-82
2023/04/16 12:58:53;;;;;;;18.23;15.02;;;12.10;80.70;;;;;;5018644;28;20039;-83
2023/04/16 13:01:19;;;;;;;18.35;14.60;;;12.20;80.60;;;;;;5017640;28;20055;-81
2023/04/16 13:03:46;;;;;;;17.70;14.98;;;12.20;80.80;;;;;;5017436;28;20041;-81
2023/04/16 13:06:13;;;;;;;20.05;14.68;;;12.20;80.60;;;;;;5012962;28;20036;-80
2023/04/16 13:08:41;;;;;;;18.27;15.30;;;12.30;80.70;;;;;;5028435;28;20029;-83
2023/04/16 13:11:07;;;;;;;19.75;15.27;;;12.10;80.60;;;;;;5029580;28;20064;-82
2023/04/16 13:13:32;;;;;;;16.73;13.95;;;12.30;80.70;;;;;;5015355;28;20032;-81
2023/04/16 13:15:58;;;;;;;17.17;14.15;;;12.20;80.60;;;;;;5015201;28;20048;-80
2023/04/16 13:18:26;;;;;;;16.40;14.05;;;12.20;80.60;;;;;;5031176;28;20025;-79
2023/04/16 13:20:52;;;;;;;18.05;14.70;;;12.30;80.60;;;;;;5010635;28;20037;-80
2023/04/16 13:23:18;;;;;;;18.02;14.88;;;12.30;80.60;;;;;;5010257;28;20029;-80
2023/04/16 13:25:43;;;;;;;17.17;14.30;;;12.30;80.60;;;;;;5011781;28;20079;-80
2023/04/16 13:28:09;;;;;;;17.50;14.73;;;12.30;80.60;;;;;;5013605;28;20394;-83